Time;durP1;ratioP1;P1;durP2;ratioP2;P2;SDS_P1;SDS_P2;PMS_P1;PMS_P2;Temp;Humidity;BMP_temperature;BMP_pressure;BME280_temperature;BME280_humidity;BME280_pressure;Samples;Min_cycle;Max_cycle;Signal;HPM_P1;HPM_P2
2022/07/14 00:14:02;;;;;;;5.90;2.10;;;;;;;-147.20;100.00;63046.97;31019351;28;97462;-61
2022/07/14 00:29:02;;;;;;;4.32;1.40;;;;;;;-147.20;100.00;63046.97;31566722;28;20037;-61
2022/07/14 00:44:03;;;;;;;3.67;1.65;;;;;;;-147.20;100.00;63046.97;31563120;28;20111;-60
2022/07/14 00:59:03;;;;;;;4.97;1.30;;;;;;;-147.20;100.00;63046.97;31562438;28;20108;-61
2022/07/14 01:14:04;;;;;;;6.67;1.90;;;;;;;-147.20;100.00;63046.97;31561536;28;20083;-61
2022/07/14 01:29:06;;;;;;;5.25;1.60;;;;;;;-147.20;100.00;63046.97;31560184;28;20183;-65
2022/07/14 01:44:07;;;;;;;3.05;1.60;;;;;;;-147.20;100.00;63046.97;31557521;28;20049;-61
2022/07/14 01:59:08;;;;;;;3.45;1.45;;;;;;;-147.20;100.00;63046.97;31554402;28;20143;-61
2022/07/14 02:14:09;;;;;;;2.75;1.80;;;;;;;-147.20;100.00;63046.97;31554958;28;20029;-61
2022/07/14 02:29:10;;;;;;;8.90;2.23;;;;;;;-147.20;100.00;63046.97;31552786;28;20048;-61
2022/07/14 02:44:10;;;;;;;6.53;1.90;;;;;;;-147.20;100.00;63046.97;31551320;28;20124;-61
2022/07/14 02:59:10;;;;;;;7.55;2.40;;;;;;;-147.20;100.00;63046.97;31548402;28;20712;-61
2022/07/14 03:14:11;;;;;;;6.97;2.40;;;;;;;-147.20;100.00;63046.97;31464841;28;20064;-62
2022/07/14 03:29:11;;;;;;;5.32;2.17;;;;;;;-147.20;100.00;63046.97;31431251;28;20029;-60
2022/07/14 03:44:11;;;;;;;3.92;2.40;;;;;;;-147.20;100.00;63046.97;31440399;28;20100;-61
2022/07/14 03:59:12;;;;;;;4.13;2.08;;;;;;;-147.20;100.00;63046.97;31498434;28;20029;-64
2022/07/14 04:14:12;;;;;;;5.32;2.55;;;;;;;-147.20;100.00;63046.97;31557270;28;20041;-60
2022/07/14 04:29:13;;;;;;;6.55;2.28;;;;;;;-147.20;100.00;63046.97;31479837;28;20082;-61
2022/07/14 04:44:14;;;;;;;3.45;2.30;;;;;;;-147.20;100.00;63046.97;31436274;28;20048;-62
2022/07/14 04:59:14;;;;;;;6.22;3.30;;;;;;;-147.20;100.00;63046.97;31435910;28;20087;-61
2022/07/14 05:14:15;;;;;;;6.10;2.73;;;;;;;-147.20;100.00;63046.97;31434981;28;20030;-62
2022/07/14 05:29:15;;;;;;;6.80;2.87;;;;;;;-147.20;100.00;63046.97;31434042;28;20021;-61
2022/07/14 05:44:15;;;;;;;6.10;2.97;;;;;;;-147.20;100.00;63046.97;31430125;28;20796;-62
2022/07/14 05:59:16;;;;;;;6.07;3.03;;;;;;;-147.20;100.00;63046.97;31429367;28;20072;-61
2022/07/14 06:14:16;;;;;;;3.33;2.20;;;;;;;-147.20;100.00;63046.97;31427655;28;20301;-62
2022/07/14 06:29:17;;;;;;;4.40;2.25;;;;;;;-147.20;100.00;63046.97;31427792;28;20622;-61
2022/07/14 06:44:17;;;;;;;;;;;;;;;-147.20;100.00;63046.97;31426023;28;20045;-61
2022/07/14 06:59:17;;;;;;;5.15;2.17;;;;;;;-147.20;100.00;63046.97;31426175;28;20007;-61
2022/07/14 07:14:19;;;;;;;5.55;2.90;;;;;;;-147.20;100.00;63046.97;31437574;28;20541;-62
2022/07/14 07:29:19;;;;;;;5.70;2.88;;;;;;;-147.20;100.00;63046.97;31444237;28;20041;-62
2022/07/14 07:44:20;;;;;;;6.35;3.00;;;;;;;-147.20;100.00;63046.97;31441750;28;20581;-62
2022/07/14 07:59:20;;;;;;;4.88;2.75;;;;;;;-147.20;100.00;63046.97;31441208;28;20422;-62
2022/07/14 08:29:40;;;;;;;4.20;2.63;;;;;;;-147.20;100.00;63046.97;31438411;28;20076;-62
2022/07/14 08:44:41;;;;;;;5.70;2.60;;;;;;;-147.20;100.00;63046.97;31437469;28;20075;-60
2022/07/14 08:59:42;;;;;;;3.78;2.65;;;;;;;-147.20;100.00;63046.97;31436621;28;20026;-62
2022/07/14 09:30:14;;;;;;;5.72;2.85;;;;;;;-147.20;100.00;63046.97;31435402;28;20048;-63
2022/07/14 09:45:15;;;;;;;5.88;2.78;;;;;;;-147.20;100.00;63046.97;31431386;28;20045;-62
2022/07/14 10:00:18;;;;;;;5.63;2.50;;;;;;;-147.20;100.00;63046.97;31430933;28;20143;-61
2022/07/14 10:15:20;;;;;;;5.27;2.70;;;;;;;-147.20;100.00;63046.97;31428927;28;20765;-61
2022/07/14 10:30:31;;;;;;;5.13;3.10;;;;;;;-147.20;100.00;63046.97;31431477;28;20295;-61
2022/07/14 10:45:32;;;;;;;4.82;3.05;;;;;;;-147.20;100.00;63046.97;31488794;28;20046;-61
2022/07/14 11:00:39;;;;;;;7.73;3.40;;;;;;;-147.20;100.00;63046.97;31541862;28;20025;-62
2022/07/14 11:15:42;;;;;;;6.07;3.70;;;;;;;-147.20;100.00;63046.97;31492693;28;20605;-63
2022/07/14 11:30:42;;;;;;;8.13;3.90;;;;;;;-147.20;100.00;63046.97;31420013;28;20622;-64
2022/07/14 11:46:07;;;;;;;4.80;3.22;;;;;;;-147.20;100.00;63046.97;31453798;28;20328;-61
2022/07/14 12:01:08;;;;;;;9.77;3.80;;;;;;;-147.20;100.00;63046.97;31489831;28;20056;-60
2022/07/14 12:16:09;;;;;;;7.28;4.35;;;;;;;-147.20;100.00;63046.97;31455647;28;20114;-62
2022/07/14 12:31:10;;;;;;;6.50;4.30;;;;;;;-147.20;100.00;63046.97;31499566;28;20190;-62
2022/07/14 12:46:23;;;;;;;6.45;4.35;;;;;;;-147.20;100.00;63046.97;31498143;28;20049;-68
2022/07/14 13:01:25;;;;;;;7.03;5.13;;;;;;;-147.20;100.00;63046.97;31433172;28;20049;-62
2022/07/14 13:16:30;;;;;;;6.90;4.40;;;;;;;-147.20;100.00;63046.97;31430893;28;20571;-63
2022/07/14 13:31:30;;;;;;;6.37;4.40;;;;;;;-147.20;100.00;63046.97;31460485;28;20256;-62
2022/07/14 13:46:30;;;;;;;5.55;3.17;;;;;;;-147.20;100.00;63046.97;31551382;28;20245;-62
2022/07/14 14:01:31;;;;;;;4.13;3.40;;;;;;;-147.20;100.00;63046.97;31553194;28;20056;-63
2022/07/14 14:16:32;;;;;;;5.13;3.30;;;;;;;-147.20;100.00;63046.97;31550885;28;20044;-62
2022/07/14 14:31:33;;;;;;;4.30;3.10;;;;;;;-147.20;100.00;63046.97;31551495;28;20028;-65
2022/07/14 14:46:33;;;;;;;4.30;2.70;;;;;;;-147.20;100.00;63046.97;31549621;28;20436;-61
2022/07/14 15:01:37;;;;;;;5.80;2.88;;;;;;;-147.20;100.00;63046.97;31549724;28;20029;-61
2022/07/14 15:16:37;;;;;;;4.43;3.08;;;;;;;-147.20;100.00;63046.97;31549656;28;20476;-62
2022/07/14 15:31:37;;;;;;;4.00;2.90;;;;;;;-147.20;100.00;63046.97;31554455;28;20055;-63
2022/07/14 15:46:38;;;;;;;11.55;3.60;;;;;;;-147.20;100.00;63046.97;31567596;28;20056;-63
2022/07/14 16:01:38;;;;;;;5.18;3.05;;;;;;;-147.20;100.00;63046.97;31566671;28;20111;-63
2022/07/14 16:16:39;;;;;;;4.13;3.03;;;;;;;-147.20;100.00;63046.97;31565183;28;20025;-62
2022/07/14 16:31:39;;;;;;;6.82;3.63;;;;;;;-147.20;100.00;63046.97;31563724;28;20108;-67
2022/07/14 16:46:40;;;;;;;5.50;3.20;;;;;;;-147.20;100.00;63046.97;31559893;28;20472;-68
2022/07/14 17:01:40;;;;;;;4.13;2.60;;;;;;;-147.20;100.00;63046.97;31560574;28;20075;-62
2022/07/14 17:16:41;;;;;;;5.40;2.63;;;;;;;-147.20;100.00;63046.97;31560755;28;20036;-62
2022/07/14 17:31:41;;;;;;;5.38;3.40;;;;;;;-147.20;100.00;63046.97;31559802;28;20118;-62
2022/07/14 17:46:42;;;;;;;4.55;2.85;;;;;;;-147.20;100.00;63046.97;31557001;28;20049;-62
2022/07/14 18:01:42;;;;;;;3.90;2.80;;;;;;;-147.20;100.00;63046.97;31557584;28;20033;-62
2022/07/14 18:16:43;;;;;;;;;;;;;;;-147.20;100.00;63046.97;31555390;28;20486;-62
2022/07/14 18:31:43;;;;;;;7.60;3.43;;;;;;;-147.20;100.00;63046.97;31555111;28;19944;-62
2022/07/14 18:46:43;;;;;;;16.92;11.77;;;;;;;-147.20;100.00;63046.97;31552720;28;20107;-62
2022/07/14 19:01:44;;;;;;;7.43;3.50;;;;;;;-147.20;100.00;63046.97;31550908;28;20041;-64
2022/07/14 19:16:44;;;;;;;5.70;4.28;;;;;;;-147.20;100.00;63046.97;31572861;28;20036;-62
2022/07/14 19:31:44;;;;;;;5.68;4.00;;;;;;;-147.20;100.00;63046.97;31571790;28;20624;-62
2022/07/14 19:46:45;;;;;;;5.43;4.10;;;;;;;-147.20;100.00;63046.97;31568927;28;20478;-62
2022/07/14 20:01:45;;;;;;;6.85;4.53;;;;;;;-147.20;100.00;63046.97;31569325;28;20163;-62
2022/07/14 20:16:46;;;;;;;7.75;5.35;;;;;;;-147.20;100.00;63046.97;31566745;28;20036;-62
2022/07/14 20:47:14;;;;;;;9.73;5.53;;;;;;;-147.20;100.00;63046.97;31564628;28;20079;-61
2022/07/14 21:02:14;;;;;;;7.72;4.93;;;;;;;-147.20;100.00;63046.97;31561345;28;20059;-62
2022/07/14 21:17:15;;;;;;;10.45;5.72;;;;;;;-147.20;100.00;63046.97;31562192;28;20057;-62
2022/07/14 21:32:15;;;;;;;8.38;5.47;;;;;;;-147.20;100.00;63046.97;31559811;28;20061;-62
2022/07/14 21:47:15;;;;;;;6.75;4.93;;;;;;;-147.20;100.00;63046.97;31559075;28;20055;-62
2022/07/14 22:02:16;;;;;;;8.85;4.78;;;;;;;-147.20;100.00;63046.97;31558513;28;20518;-62
2022/07/14 22:17:19;;;;;;;5.63;4.50;;;;;;;-147.20;100.00;63046.97;31556848;28;20619;-62
2022/07/14 22:32:20;;;;;;;3.97;2.40;;;;;;;-147.20;100.00;63046.97;31555364;28;20112;-62
2022/07/14 22:47:20;;;;;;;4.25;2.35;;;;;;;-147.20;100.00;63046.97;31552874;28;20132;-61
2022/07/14 23:02:20;;;;;;;3.92;1.90;;;;;;;-147.20;100.00;63046.97;31551484;28;20041;-62
2022/07/14 23:17:21;;;;;;;3.08;1.65;;;;;;;-147.20;100.00;63046.97;31552082;28;20433;-62
2022/07/14 23:32:21;;;;;;;6.22;1.60;;;;;;;-147.20;100.00;63046.97;31551079;28;20130;-62
2022/07/14 23:47:21;;;;;;;4.80;2.22;;;;;;;-147.20;100.00;63046.97;31549182;28;20049;-62
